sensor_id;sensor_type;location;lat;lon;timestamp;P1;durP1;ratioP1;P2;durP2;ratioP2
13034;SDS011;6584;48.022;11.810;2022-12-07T00:01:06;17.75;;;12.90;;
13034;SDS011;6584;48.022;11.810;2022-12-07T00:03:36;17.65;;;12.63;;
13034;SDS011;6584;48.022;11.810;2022-12-07T00:06:03;16.73;;;12.70;;
13034;SDS011;6584;48.022;11.810;2022-12-07T00:08:30;18.77;;;13.13;;
13034;SDS011;6584;48.022;11.810;2022-12-07T00:11:04;17.35;;;13.20;;
13034;SDS011;6584;48.022;11.810;2022-12-07T00:13:32;17.75;;;13.43;;
13034;SDS011;6584;48.022;11.810;2022-12-07T00:16:02;16.77;;;12.70;;
13034;SDS011;6584;48.022;11.810;2022-12-07T00:18:32;18.15;;;13.13;;
13034;SDS011;6584;48.022;11.810;2022-12-07T00:20:59;19.63;;;13.48;;
13034;SDS011;6584;48.022;11.810;2022-12-07T00:23:28;16.42;;;12.80;;
13034;SDS011;6584;48.022;11.810;2022-12-07T00:25:54;16.75;;;12.27;;
13034;SDS011;6584;48.022;11.810;2022-12-07T00:28:20;18.55;;;12.15;;
13034;SDS011;6584;48.022;11.810;2022-12-07T00:30:45;16.17;;;12.68;;
13034;SDS011;6584;48.022;11.810;2022-12-07T00:33:11;16.48;;;12.40;;
13034;SDS011;6584;48.022;11.810;2022-12-07T00:35:36;16.60;;;12.82;;
13034;SDS011;6584;48.022;11.810;2022-12-07T00:38:02;18.05;;;12.23;;
13034;SDS011;6584;48.022;11.810;2022-12-07T00:40:28;14.80;;;11.80;;
13034;SDS011;6584;48.022;11.810;2022-12-07T00:42:53;16.17;;;12.75;;
13034;SDS011;6584;48.022;11.810;2022-12-07T00:45:19;17.13;;;13.30;;
13034;SDS011;6584;48.022;11.810;2022-12-07T00:47:44;18.38;;;12.50;;
13034;SDS011;6584;48.022;11.810;2022-12-07T00:50:10;19.52;;;12.75;;
13034;SDS011;6584;48.022;11.810;2022-12-07T00:52:35;17.50;;;13.02;;
13034;SDS011;6584;48.022;11.810;2022-12-07T00:55:01;16.35;;;12.68;;
13034;SDS011;6584;48.022;11.810;2022-12-07T00:57:27;16.80;;;12.80;;
13034;SDS011;6584;48.022;11.810;2022-12-07T00:59:52;15.73;;;12.38;;
13034;SDS011;6584;48.022;11.810;2022-12-07T01:02:20;14.65;;;11.88;;
13034;SDS011;6584;48.022;11.810;2022-12-07T01:04:47;15.85;;;12.40;;
13034;SDS011;6584;48.022;11.810;2022-12-07T01:07:12;15.85;;;12.88;;
13034;SDS011;6584;48.022;11.810;2022-12-07T01:09:38;16.98;;;12.88;;
13034;SDS011;6584;48.022;11.810;2022-12-07T01:12:03;15.43;;;11.63;;
13034;SDS011;6584;48.022;11.810;2022-12-07T01:14:29;16.13;;;11.93;;
13034;SDS011;6584;48.022;11.810;2022-12-07T01:16:55;16.23;;;11.82;;
13034;SDS011;6584;48.022;11.810;2022-12-07T01:19:20;15.10;;;11.60;;
13034;SDS011;6584;48.022;11.810;2022-12-07T01:21:46;14.80;;;11.63;;
13034;SDS011;6584;48.022;11.810;2022-12-07T01:24:11;16.15;;;12.07;;
13034;SDS011;6584;48.022;11.810;2022-12-07T01:26:37;15.05;;;12.30;;
13034;SDS011;6584;48.022;11.810;2022-12-07T01:29:03;14.57;;;11.23;;
13034;SDS011;6584;48.022;11.810;2022-12-07T01:31:28;15.40;;;11.00;;
13034;SDS011;6584;48.022;11.810;2022-12-07T01:33:56;17.05;;;12.00;;
13034;SDS011;6584;48.022;11.810;2022-12-07T01:36:24;16.55;;;11.73;;
13034;SDS011;6584;48.022;11.810;2022-12-07T01:38:51;13.90;;;11.70;;
13034;SDS011;6584;48.022;11.810;2022-12-07T01:41:21;14.32;;;11.13;;
13034;SDS011;6584;48.022;11.810;2022-12-07T01:52:15;13.77;;;11.23;;
13034;SDS011;6584;48.022;11.810;2022-12-07T01:54:51;14.77;;;11.25;;
13034;SDS011;6584;48.022;11.810;2022-12-07T01:57:20;12.98;;;10.70;;
13034;SDS011;6584;48.022;11.810;2022-12-07T01:59:47;12.90;;;11.35;;
13034;SDS011;6584;48.022;11.810;2022-12-07T02:02:23;14.20;;;10.57;;
13034;SDS011;6584;48.022;11.810;2022-12-07T02:04:56;14.05;;;10.85;;
13034;SDS011;6584;48.022;11.810;2022-12-07T02:07:23;12.77;;;10.07;;
13034;SDS011;6584;48.022;11.810;2022-12-07T02:09:50;13.13;;;10.43;;
13034;SDS011;6584;48.022;11.810;2022-12-07T02:12:15;12.65;;;10.80;;
13034;SDS011;6584;48.022;11.810;2022-12-07T02:14:41;14.07;;;10.95;;
13034;SDS011;6584;48.022;11.810;2022-12-07T02:17:12;11.90;;;9.63;;
13034;SDS011;6584;48.022;11.810;2022-12-07T02:20:00;12.55;;;10.20;;
13034;SDS011;6584;48.022;11.810;2022-12-07T02:30:51;11.43;;;9.43;;
13034;SDS011;6584;48.022;11.810;2022-12-07T02:33:23;12.40;;;9.60;;
13034;SDS011;6584;48.022;11.810;2022-12-07T02:35:55;10.88;;;9.68;;
13034;SDS011;6584;48.022;11.810;2022-12-07T02:41:10;11.27;;;9.05;;
13034;SDS011;6584;48.022;11.810;2022-12-07T02:43:42;11.57;;;9.05;;
13034;SDS011;6584;48.022;11.810;2022-12-07T02:46:13;10.77;;;9.25;;
13034;SDS011;6584;48.022;11.810;2022-12-07T02:48:41;11.07;;;9.35;;
13034;SDS011;6584;48.022;11.810;2022-12-07T02:51:08;10.45;;;8.85;;
13034;SDS011;6584;48.022;11.810;2022-12-07T02:53:38;9.98;;;8.90;;
13034;SDS011;6584;48.022;11.810;2022-12-07T03:01:25;11.30;;;9.23;;
13034;SDS011;6584;48.022;11.810;2022-12-07T03:06:56;10.02;;;8.32;;
13034;SDS011;6584;48.022;11.810;2022-12-07T03:09:31;11.13;;;9.02;;
13034;SDS011;6584;48.022;11.810;2022-12-07T03:12:04;10.18;;;8.73;;
13034;SDS011;6584;48.022;11.810;2022-12-07T03:14:52;11.93;;;9.18;;
13034;SDS011;6584;48.022;11.810;2022-12-07T03:17:26;9.93;;;8.93;;
13034;SDS011;6584;48.022;11.810;2022-12-07T03:19:57;11.15;;;8.70;;
13034;SDS011;6584;48.022;11.810;2022-12-07T03:22:24;8.73;;;7.82;;
13034;SDS011;6584;48.022;11.810;2022-12-07T03:24:57;9.02;;;8.07;;
13034;SDS011;6584;48.022;11.810;2022-12-07T03:27:26;9.98;;;8.98;;
13034;SDS011;6584;48.022;11.810;2022-12-07T03:29:58;9.90;;;8.07;;
13034;SDS011;6584;48.022;11.810;2022-12-07T03:37:42;10.15;;;8.48;;
13034;SDS011;6584;48.022;11.810;2022-12-07T03:40:26;8.95;;;8.05;;
13034;SDS011;6584;48.022;11.810;2022-12-07T03:43:02;9.10;;;8.18;;
13034;SDS011;6584;48.022;11.810;2022-12-07T03:45:31;10.07;;;8.10;;
13034;SDS011;6584;48.022;11.810;2022-12-07T03:48:09;11.07;;;8.82;;
13034;SDS011;6584;48.022;11.810;2022-12-07T03:51:02;10.30;;;9.10;;
13034;SDS011;6584;48.022;11.810;2022-12-07T03:53:46;9.65;;;8.32;;
13034;SDS011;6584;48.022;11.810;2022-12-07T03:56:18;9.68;;;8.60;;
13034;SDS011;6584;48.022;11.810;2022-12-07T03:58:45;9.27;;;8.30;;
13034;SDS011;6584;48.022;11.810;2022-12-07T04:01:11;11.60;;;8.45;;
13034;SDS011;6584;48.022;11.810;2022-12-07T04:03:37;10.18;;;8.95;;
13034;SDS011;6584;48.022;11.810;2022-12-07T04:06:03;9.85;;;8.15;;
13034;SDS011;6584;48.022;11.810;2022-12-07T04:08:29;9.32;;;7.78;;
13034;SDS011;6584;48.022;11.810;2022-12-07T04:10:54;9.63;;;8.40;;
13034;SDS011;6584;48.022;11.810;2022-12-07T04:13:20;10.20;;;8.85;;
13034;SDS011;6584;48.022;11.810;2022-12-07T04:15:45;9.85;;;8.45;;
13034;SDS011;6584;48.022;11.810;2022-12-07T04:18:11;10.95;;;9.20;;
13034;SDS011;6584;48.022;11.810;2022-12-07T04:20:37;10.90;;;8.95;;
13034;SDS011;6584;48.022;11.810;2022-12-07T04:23:02;9.30;;;7.85;;
13034;SDS011;6584;48.022;11.810;2022-12-07T04:25:28;9.40;;;8.30;;
13034;SDS011;6584;48.022;11.810;2022-12-07T04:27:53;9.75;;;8.75;;
13034;SDS011;6584;48.022;11.810;2022-12-07T04:30:19;10.07;;;8.38;;
13034;SDS011;6584;48.022;11.810;2022-12-07T04:32:44;10.50;;;8.90;;
13034;SDS011;6584;48.022;11.810;2022-12-07T04:35:10;10.77;;;8.75;;
13034;SDS011;6584;48.022;11.810;2022-12-07T04:37:35;11.23;;;9.65;;
13034;SDS011;6584;48.022;11.810;2022-12-07T04:40:04;12.65;;;9.70;;
13034;SDS011;6584;48.022;11.810;2022-12-07T04:42:30;10.15;;;8.82;;
13034;SDS011;6584;48.022;11.810;2022-12-07T04:44:56;10.45;;;8.52;;
13034;SDS011;6584;48.022;11.810;2022-12-07T04:47:21;10.30;;;8.82;;
13034;SDS011;6584;48.022;11.810;2022-12-07T04:49:47;10.55;;;9.02;;
13034;SDS011;6584;48.022;11.810;2022-12-07T04:52:12;11.00;;;8.80;;
13034;SDS011;6584;48.022;11.810;2022-12-07T04:54:38;10.25;;;9.20;;
13034;SDS011;6584;48.022;11.810;2022-12-07T04:57:03;10.70;;;8.95;;
13034;SDS011;6584;48.022;11.810;2022-12-07T04:59:29;12.00;;;9.23;;
13034;SDS011;6584;48.022;11.810;2022-12-07T05:01:54;10.88;;;9.00;;
13034;SDS011;6584;48.022;11.810;2022-12-07T05:04:20;13.57;;;10.00;;
13034;SDS011;6584;48.022;11.810;2022-12-07T05:06:45;11.05;;;9.60;;
13034;SDS011;6584;48.022;11.810;2022-12-07T05:09:11;11.52;;;9.60;;
13034;SDS011;6584;48.022;11.810;2022-12-07T05:11:37;11.05;;;9.35;;
13034;SDS011;6584;48.022;11.810;2022-12-07T05:16:34;11.95;;;10.23;;
13034;SDS011;6584;48.022;11.810;2022-12-07T05:18:59;11.40;;;9.55;;
13034;SDS011;6584;48.022;11.810;2022-12-07T05:21:25;11.50;;;9.10;;
13034;SDS011;6584;48.022;11.810;2022-12-07T05:23:51;10.98;;;9.77;;
13034;SDS011;6584;48.022;11.810;2022-12-07T05:26:16;11.65;;;9.75;;
13034;SDS011;6584;48.022;11.810;2022-12-07T05:28:43;12.60;;;9.35;;
13034;SDS011;6584;48.022;11.810;2022-12-07T05:31:08;10.93;;;9.63;;
13034;SDS011;6584;48.022;11.810;2022-12-07T05:33:34;11.75;;;9.65;;
13034;SDS011;6584;48.022;11.810;2022-12-07T05:36:00;11.25;;;8.68;;
13034;SDS011;6584;48.022;11.810;2022-12-07T05:38:30;11.40;;;9.30;;
13034;SDS011;6584;48.022;11.810;2022-12-07T05:40:59;12.10;;;10.27;;
13034;SDS011;6584;48.022;11.810;2022-12-07T05:43:26;12.05;;;10.48;;
13034;SDS011;6584;48.022;11.810;2022-12-07T05:45:52;12.25;;;9.93;;
13034;SDS011;6584;48.022;11.810;2022-12-07T05:48:17;11.45;;;10.25;;
13034;SDS011;6584;48.022;11.810;2022-12-07T05:50:43;12.27;;;10.40;;
13034;SDS011;6584;48.022;11.810;2022-12-07T05:53:08;11.85;;;10.10;;
13034;SDS011;6584;48.022;11.810;2022-12-07T05:55:34;12.88;;;10.70;;
13034;SDS011;6584;48.022;11.810;2022-12-07T05:57:59;10.65;;;9.35;;
13034;SDS011;6584;48.022;11.810;2022-12-07T06:00:44;11.23;;;10.02;;
13034;SDS011;6584;48.022;11.810;2022-12-07T06:03:09;10.63;;;9.50;;
13034;SDS011;6584;48.022;11.810;2022-12-07T06:05:36;11.63;;;10.20;;
13034;SDS011;6584;48.022;11.810;2022-12-07T06:08:01;10.85;;;9.65;;
13034;SDS011;6584;48.022;11.810;2022-12-07T06:10:27;11.60;;;9.82;;
13034;SDS011;6584;48.022;11.810;2022-12-07T06:12:53;11.55;;;9.70;;
13034;SDS011;6584;48.022;11.810;2022-12-07T06:15:18;12.02;;;10.45;;
13034;SDS011;6584;48.022;11.810;2022-12-07T06:17:44;11.23;;;10.02;;
13034;SDS011;6584;48.022;11.810;2022-12-07T06:20:09;11.93;;;10.27;;
13034;SDS011;6584;48.022;11.810;2022-12-07T06:22:35;12.55;;;10.20;;
13034;SDS011;6584;48.022;11.810;2022-12-07T06:25:00;12.80;;;10.48;;
13034;SDS011;6584;48.022;11.810;2022-12-07T06:27:26;11.85;;;10.32;;
13034;SDS011;6584;48.022;11.810;2022-12-07T06:29:52;12.07;;;10.27;;
13034;SDS011;6584;48.022;11.810;2022-12-07T06:32:17;12.77;;;10.63;;
13034;SDS011;6584;48.022;11.810;2022-12-07T06:34:43;11.55;;;10.20;;
13034;SDS011;6584;48.022;11.810;2022-12-07T06:37:08;11.32;;;10.15;;
13034;SDS011;6584;48.022;11.810;2022-12-07T06:39:34;13.32;;;10.48;;
13034;SDS011;6584;48.022;11.810;2022-12-07T06:41:59;12.23;;;10.60;;
13034;SDS011;6584;48.022;11.810;2022-12-07T06:44:25;12.45;;;10.48;;
13034;SDS011;6584;48.022;11.810;2022-12-07T06:46:51;11.82;;;10.55;;
13034;SDS011;6584;48.022;11.810;2022-12-07T06:49:17;11.98;;;9.93;;
13034;SDS011;6584;48.022;11.810;2022-12-07T06:51:43;12.63;;;10.57;;
13034;SDS011;6584;48.022;11.810;2022-12-07T06:54:09;11.02;;;9.80;;
13034;SDS011;6584;48.022;11.810;2022-12-07T06:56:36;11.63;;;10.38;;
13034;SDS011;6584;48.022;11.810;2022-12-07T06:59:02;11.85;;;10.13;;
13034;SDS011;6584;48.022;11.810;2022-12-07T07:01:30;11.10;;;9.68;;
13034;SDS011;6584;48.022;11.810;2022-12-07T07:03:56;12.43;;;9.50;;
13034;SDS011;6584;48.022;11.810;2022-12-07T07:06:21;12.40;;;9.85;;
13034;SDS011;6584;48.022;11.810;2022-12-07T07:08:47;11.77;;;10.55;;
13034;SDS011;6584;48.022;11.810;2022-12-07T07:11:12;12.63;;;10.13;;
13034;SDS011;6584;48.022;11.810;2022-12-07T07:13:38;11.13;;;9.93;;
13034;SDS011;6584;48.022;11.810;2022-12-07T07:16:04;13.98;;;10.57;;
13034;SDS011;6584;48.022;11.810;2022-12-07T07:18:30;11.48;;;10.27;;
13034;SDS011;6584;48.022;11.810;2022-12-07T07:20:55;10.70;;;9.45;;
13034;SDS011;6584;48.022;11.810;2022-12-07T07:23:21;10.38;;;9.27;;
13034;SDS011;6584;48.022;11.810;2022-12-07T07:25:47;11.75;;;10.20;;
13034;SDS011;6584;48.022;11.810;2022-12-07T07:28:13;11.98;;;10.23;;
13034;SDS011;6584;48.022;11.810;2022-12-07T07:30:39;11.80;;;10.20;;
13034;SDS011;6584;48.022;11.810;2022-12-07T07:33:05;11.55;;;10.25;;
13034;SDS011;6584;48.022;11.810;2022-12-07T07:35:32;11.95;;;10.43;;
13034;SDS011;6584;48.022;11.810;2022-12-07T07:37:59;12.43;;;10.23;;
13034;SDS011;6584;48.022;11.810;2022-12-07T07:40:25;11.82;;;10.35;;
13034;SDS011;6584;48.022;11.810;2022-12-07T07:42:52;12.88;;;11.02;;
13034;SDS011;6584;48.022;11.810;2022-12-07T07:45:19;12.23;;;10.88;;
13034;SDS011;6584;48.022;11.810;2022-12-07T07:47:46;13.13;;;10.68;;
13034;SDS011;6584;48.022;11.810;2022-12-07T07:50:11;12.35;;;10.90;;
13034;SDS011;6584;48.022;11.810;2022-12-07T07:52:37;11.77;;;9.80;;
13034;SDS011;6584;48.022;11.810;2022-12-07T07:55:03;11.48;;;10.18;;
13034;SDS011;6584;48.022;11.810;2022-12-07T07:57:29;11.75;;;9.57;;
13034;SDS011;6584;48.022;11.810;2022-12-07T07:59:55;11.52;;;10.05;;
13034;SDS011;6584;48.022;11.810;2022-12-07T08:02:20;12.07;;;10.77;;
13034;SDS011;6584;48.022;11.810;2022-12-07T08:04:47;13.82;;;10.68;;
13034;SDS011;6584;48.022;11.810;2022-12-07T08:07:13;14.80;;;11.38;;
13034;SDS011;6584;48.022;11.810;2022-12-07T08:09:39;11.98;;;10.35;;
13034;SDS011;6584;48.022;11.810;2022-12-07T08:12:05;11.95;;;10.35;;
13034;SDS011;6584;48.022;11.810;2022-12-07T08:14:31;12.07;;;10.77;;
13034;SDS011;6584;48.022;11.810;2022-12-07T08:16:56;11.13;;;9.50;;
13034;SDS011;6584;48.022;11.810;2022-12-07T08:19:22;10.15;;;8.98;;
13034;SDS011;6584;48.022;11.810;2022-12-07T08:21:48;10.30;;;9.25;;
13034;SDS011;6584;48.022;11.810;2022-12-07T08:24:14;10.50;;;8.73;;
13034;SDS011;6584;48.022;11.810;2022-12-07T08:26:39;9.07;;;7.80;;
13034;SDS011;6584;48.022;11.810;2022-12-07T08:29:05;9.45;;;8.45;;
13034;SDS011;6584;48.022;11.810;2022-12-07T08:31:31;9.02;;;8.13;;
13034;SDS011;6584;48.022;11.810;2022-12-07T08:33:57;9.50;;;8.50;;
13034;SDS011;6584;48.022;11.810;2022-12-07T08:36:22;9.02;;;8.13;;
13034;SDS011;6584;48.022;11.810;2022-12-07T08:38:48;10.40;;;9.18;;
13034;SDS011;6584;48.022;11.810;2022-12-07T08:41:14;14.93;;;9.68;;
13034;SDS011;6584;48.022;11.810;2022-12-07T08:43:39;10.15;;;9.15;;
13034;SDS011;6584;48.022;11.810;2022-12-07T08:48:31;11.75;;;9.32;;
13034;SDS011;6584;48.022;11.810;2022-12-07T08:50:58;10.82;;;9.15;;
13034;SDS011;6584;48.022;11.810;2022-12-07T08:53:25;10.32;;;9.02;;
13034;SDS011;6584;48.022;11.810;2022-12-07T08:55:50;20.38;;;10.40;;
13034;SDS011;6584;48.022;11.810;2022-12-07T08:58:16;10.27;;;9.18;;
13034;SDS011;6584;48.022;11.810;2022-12-07T09:00:42;12.95;;;9.90;;
13034;SDS011;6584;48.022;11.810;2022-12-07T09:03:07;10.98;;;9.65;;
13034;SDS011;6584;48.022;11.810;2022-12-07T09:05:33;10.45;;;9.35;;
13034;SDS011;6584;48.022;11.810;2022-12-07T09:08:00;11.68;;;8.93;;
13034;SDS011;6584;48.022;11.810;2022-12-07T09:10:27;10.27;;;8.98;;
13034;SDS011;6584;48.022;11.810;2022-12-07T09:12:53;10.25;;;8.85;;
13034;SDS011;6584;48.022;11.810;2022-12-07T09:15:19;9.82;;;8.80;;
13034;SDS011;6584;48.022;11.810;2022-12-07T09:17:44;10.63;;;9.40;;
13034;SDS011;6584;48.022;11.810;2022-12-07T09:20:10;9.38;;;8.45;;
13034;SDS011;6584;48.022;11.810;2022-12-07T09:22:36;10.13;;;9.02;;
13034;SDS011;6584;48.022;11.810;2022-12-07T09:25:03;11.27;;;9.18;;
13034;SDS011;6584;48.022;11.810;2022-12-07T09:27:29;8.63;;;7.72;;
13034;SDS011;6584;48.022;11.810;2022-12-07T09:29:54;10.20;;;8.77;;
13034;SDS011;6584;48.022;11.810;2022-12-07T09:32:20;8.90;;;7.90;;
13034;SDS011;6584;48.022;11.810;2022-12-07T09:34:46;8.45;;;7.65;;
13034;SDS011;6584;48.022;11.810;2022-12-07T09:37:12;9.20;;;7.82;;
13034;SDS011;6584;48.022;11.810;2022-12-07T09:39:38;9.52;;;8.25;;
13034;SDS011;6584;48.022;11.810;2022-12-07T09:42:05;10.10;;;8.60;;
13034;SDS011;6584;48.022;11.810;2022-12-07T09:44:32;9.05;;;8.02;;
13034;SDS011;6584;48.022;11.810;2022-12-07T09:46:59;11.10;;;9.85;;
13034;SDS011;6584;48.022;11.810;2022-12-07T09:49:27;10.85;;;9.27;;
13034;SDS011;6584;48.022;11.810;2022-12-07T09:52:03;10.50;;;8.80;;
13034;SDS011;6584;48.022;11.810;2022-12-07T09:54:42;9.60;;;8.60;;
13034;SDS011;6584;48.022;11.810;2022-12-07T09:57:10;8.80;;;7.90;;
13034;SDS011;6584;48.022;11.810;2022-12-07T09:59:37;9.25;;;8.25;;
13034;SDS011;6584;48.022;11.810;2022-12-07T10:04:49;13.30;;;11.18;;
13034;SDS011;6584;48.022;11.810;2022-12-07T10:07:15;11.68;;;10.00;;
13034;SDS011;6584;48.022;11.810;2022-12-07T10:09:40;12.50;;;9.98;;
13034;SDS011;6584;48.022;11.810;2022-12-07T10:12:07;10.35;;;9.20;;
13034;SDS011;6584;48.022;11.810;2022-12-07T10:14:35;13.05;;;11.45;;
13034;SDS011;6584;48.022;11.810;2022-12-07T10:17:02;10.55;;;9.30;;
13034;SDS011;6584;48.022;11.810;2022-12-07T10:20:08;9.30;;;8.27;;
13034;SDS011;6584;48.022;11.810;2022-12-07T10:22:37;8.90;;;8.00;;
13034;SDS011;6584;48.022;11.810;2022-12-07T10:25:09;10.73;;;9.23;;
13034;SDS011;6584;48.022;11.810;2022-12-07T10:27:44;8.23;;;7.43;;
13034;SDS011;6584;48.022;11.810;2022-12-07T10:33:48;9.38;;;8.30;;
13034;SDS011;6584;48.022;11.810;2022-12-07T10:36:20;9.05;;;7.90;;
13034;SDS011;6584;48.022;11.810;2022-12-07T10:39:02;8.73;;;7.45;;
13034;SDS011;6584;48.022;11.810;2022-12-07T10:44:29;11.63;;;9.55;;
13034;SDS011;6584;48.022;11.810;2022-12-07T10:52:29;8.48;;;7.57;;
13034;SDS011;6584;48.022;11.810;2022-12-07T11:00:37;9.23;;;8.20;;
13034;SDS011;6584;48.022;11.810;2022-12-07T11:03:20;9.68;;;8.68;;
13034;SDS011;6584;48.022;11.810;2022-12-07T11:11:30;9.88;;;8.15;;
13034;SDS011;6584;48.022;11.810;2022-12-07T11:21:57;9.32;;;8.43;;
13034;SDS011;6584;48.022;11.810;2022-12-07T11:24:36;11.60;;;9.02;;
13034;SDS011;6584;48.022;11.810;2022-12-07T11:27:26;9.70;;;8.70;;
13034;SDS011;6584;48.022;11.810;2022-12-07T11:38:28;9.73;;;8.73;;
13034;SDS011;6584;48.022;11.810;2022-12-07T11:41:06;9.52;;;8.52;;
13034;SDS011;6584;48.022;11.810;2022-12-07T11:43:37;9.35;;;8.32;;
13034;SDS011;6584;48.022;11.810;2022-12-07T11:46:19;8.38;;;7.57;;
13034;SDS011;6584;48.022;11.810;2022-12-07T11:48:51;8.90;;;8.00;;
13034;SDS011;6584;48.022;11.810;2022-12-07T11:51:37;8.48;;;7.65;;
13034;SDS011;6584;48.022;11.810;2022-12-07T11:54:18;9.30;;;8.15;;
13034;SDS011;6584;48.022;11.810;2022-12-07T11:56:48;9.43;;;8.43;;
13034;SDS011;6584;48.022;11.810;2022-12-07T12:01:50;8.38;;;7.47;;
13034;SDS011;6584;48.022;11.810;2022-12-07T12:04:34;9.73;;;7.95;;
13034;SDS011;6584;48.022;11.810;2022-12-07T12:07:07;9.23;;;8.23;;
13034;SDS011;6584;48.022;11.810;2022-12-07T12:09:42;9.63;;;8.68;;
13034;SDS011;6584;48.022;11.810;2022-12-07T12:12:26;8.30;;;7.40;;
13034;SDS011;6584;48.022;11.810;2022-12-07T12:23:15;8.35;;;7.45;;
13034;SDS011;6584;48.022;11.810;2022-12-07T12:28:24;8.27;;;7.47;;
13034;SDS011;6584;48.022;11.810;2022-12-07T12:36:17;9.18;;;8.27;;
13034;SDS011;6584;48.022;11.810;2022-12-07T12:46:57;8.13;;;7.32;;
13034;SDS011;6584;48.022;11.810;2022-12-07T12:54:23;8.63;;;7.50;;
13034;SDS011;6584;48.022;11.810;2022-12-07T12:56:52;9.32;;;7.45;;
13034;SDS011;6584;48.022;11.810;2022-12-07T13:01:46;9.18;;;7.78;;
13034;SDS011;6584;48.022;11.810;2022-12-07T13:04:17;9.15;;;8.05;;
13034;SDS011;6584;48.022;11.810;2022-12-07T13:07:04;8.27;;;7.47;;
13034;SDS011;6584;48.022;11.810;2022-12-07T13:09:35;8.00;;;7.20;;
13034;SDS011;6584;48.022;11.810;2022-12-07T13:12:05;7.97;;;7.10;;
13034;SDS011;6584;48.022;11.810;2022-12-07T13:19:57;8.13;;;7.18;;
13034;SDS011;6584;48.022;11.810;2022-12-07T13:24:57;8.38;;;7.47;;
13034;SDS011;6584;48.022;11.810;2022-12-07T13:27:25;7.93;;;7.13;;
13034;SDS011;6584;48.022;11.810;2022-12-07T13:29:52;7.97;;;7.18;;
13034;SDS011;6584;48.022;11.810;2022-12-07T13:32:25;7.95;;;7.15;;
13034;SDS011;6584;48.022;11.810;2022-12-07T13:34:52;8.13;;;7.28;;
13034;SDS011;6584;48.022;11.810;2022-12-07T13:37:24;8.32;;;6.95;;
13034;SDS011;6584;48.022;11.810;2022-12-07T13:39:56;8.07;;;6.97;;
13034;SDS011;6584;48.022;11.810;2022-12-07T13:42:24;7.57;;;6.88;;
13034;SDS011;6584;48.022;11.810;2022-12-07T13:44:51;7.90;;;7.10;;
13034;SDS011;6584;48.022;11.810;2022-12-07T13:52:43;8.40;;;7.60;;
13034;SDS011;6584;48.022;11.810;2022-12-07T13:55:16;9.30;;;7.32;;
13034;SDS011;6584;48.022;11.810;2022-12-07T13:57:42;6.97;;;6.28;;
13034;SDS011;6584;48.022;11.810;2022-12-07T14:00:16;10.82;;;7.05;;
13034;SDS011;6584;48.022;11.810;2022-12-07T14:05:30;7.88;;;7.07;;
13034;SDS011;6584;48.022;11.810;2022-12-07T14:08:01;8.05;;;7.25;;
13034;SDS011;6584;48.022;11.810;2022-12-07T14:10:33;7.55;;;6.80;;
13034;SDS011;6584;48.022;11.810;2022-12-07T14:13:01;7.97;;;6.80;;
13034;SDS011;6584;48.022;11.810;2022-12-07T14:15:45;8.07;;;7.20;;
13034;SDS011;6584;48.022;11.810;2022-12-07T14:18:29;7.53;;;6.68;;
13034;SDS011;6584;48.022;11.810;2022-12-07T14:21:02;7.70;;;6.95;;
13034;SDS011;6584;48.022;11.810;2022-12-07T14:23:40;7.78;;;6.93;;
13034;SDS011;6584;48.022;11.810;2022-12-07T14:26:12;8.43;;;7.18;;
13034;SDS011;6584;48.022;11.810;2022-12-07T14:28:45;8.07;;;7.28;;
13034;SDS011;6584;48.022;11.810;2022-12-07T14:31:15;9.70;;;7.60;;
13034;SDS011;6584;48.022;11.810;2022-12-07T14:33:49;9.68;;;7.63;;
13034;SDS011;6584;48.022;11.810;2022-12-07T14:36:15;8.57;;;7.45;;
13034;SDS011;6584;48.022;11.810;2022-12-07T14:38:41;9.02;;;7.68;;
13034;SDS011;6584;48.022;11.810;2022-12-07T14:41:10;9.25;;;7.15;;
13034;SDS011;6584;48.022;11.810;2022-12-07T14:43:58;9.35;;;8.25;;
13034;SDS011;6584;48.022;11.810;2022-12-07T14:46:24;10.00;;;8.75;;
13034;SDS011;6584;48.022;11.810;2022-12-07T14:48:49;8.88;;;7.93;;
13034;SDS011;6584;48.022;11.810;2022-12-07T14:51:15;8.65;;;7.78;;
13034;SDS011;6584;48.022;11.810;2022-12-07T14:53:42;8.68;;;7.78;;
13034;SDS011;6584;48.022;11.810;2022-12-07T14:56:12;8.73;;;7.82;;
13034;SDS011;6584;48.022;11.810;2022-12-07T14:58:38;8.38;;;7.50;;
13034;SDS011;6584;48.022;11.810;2022-12-07T15:01:05;8.13;;;7.07;;
13034;SDS011;6584;48.022;11.810;2022-12-07T15:03:31;8.75;;;7.85;;
13034;SDS011;6584;48.022;11.810;2022-12-07T15:05:56;9.65;;;7.65;;
13034;SDS011;6584;48.022;11.810;2022-12-07T15:08:22;7.95;;;7.07;;
13034;SDS011;6584;48.022;11.810;2022-12-07T15:10:48;8.10;;;7.30;;
13034;SDS011;6584;48.022;11.810;2022-12-07T15:13:13;8.93;;;8.02;;
13034;SDS011;6584;48.022;11.810;2022-12-07T15:15:58;8.80;;;7.97;;
13034;SDS011;6584;48.022;11.810;2022-12-07T15:18:24;8.50;;;7.60;;
13034;SDS011;6584;48.022;11.810;2022-12-07T15:20:50;8.60;;;6.95;;
13034;SDS011;6584;48.022;11.810;2022-12-07T15:23:16;12.45;;;10.07;;
13034;SDS011;6584;48.022;11.810;2022-12-07T15:25:43;9.77;;;7.85;;
13034;SDS011;6584;48.022;11.810;2022-12-07T15:28:10;14.10;;;11.23;;
13034;SDS011;6584;48.022;11.810;2022-12-07T15:30:39;13.07;;;10.38;;
13034;SDS011;6584;48.022;11.810;2022-12-07T15:33:07;14.15;;;11.50;;
13034;SDS011;6584;48.022;11.810;2022-12-07T15:35:33;13.48;;;10.75;;
13034;SDS011;6584;48.022;11.810;2022-12-07T15:38:03;9.82;;;8.75;;
13034;SDS011;6584;48.022;11.810;2022-12-07T15:40:28;10.20;;;9.13;;
13034;SDS011;6584;48.022;11.810;2022-12-07T15:42:54;10.70;;;9.18;;
13034;SDS011;6584;48.022;11.810;2022-12-07T15:45:20;9.48;;;7.97;;
13034;SDS011;6584;48.022;11.810;2022-12-07T15:47:46;9.02;;;8.13;;
13034;SDS011;6584;48.022;11.810;2022-12-07T15:50:12;13.30;;;10.88;;
13034;SDS011;6584;48.022;11.810;2022-12-07T15:52:40;12.20;;;9.93;;
13034;SDS011;6584;48.022;11.810;2022-12-07T15:55:06;13.70;;;11.13;;
13034;SDS011;6584;48.022;11.810;2022-12-07T15:57:33;18.98;;;14.02;;
13034;SDS011;6584;48.022;11.810;2022-12-07T16:00:00;15.98;;;12.23;;
13034;SDS011;6584;48.022;11.810;2022-12-07T16:02:25;13.55;;;10.90;;
13034;SDS011;6584;48.022;11.810;2022-12-07T16:04:51;17.58;;;14.38;;
13034;SDS011;6584;48.022;11.810;2022-12-07T16:07:18;18.38;;;14.95;;
13034;SDS011;6584;48.022;11.810;2022-12-07T16:09:44;20.27;;;16.52;;
13034;SDS011;6584;48.022;11.810;2022-12-07T16:12:10;28.58;;;22.83;;
13034;SDS011;6584;48.022;11.810;2022-12-07T16:14:37;20.65;;;16.20;;
13034;SDS011;6584;48.022;11.810;2022-12-07T16:17:03;11.98;;;10.68;;
13034;SDS011;6584;48.022;11.810;2022-12-07T16:19:30;12.38;;;10.15;;
13034;SDS011;6584;48.022;11.810;2022-12-07T16:21:56;13.65;;;11.43;;
13034;SDS011;6584;48.022;11.810;2022-12-07T16:24:22;12.90;;;11.07;;
13034;SDS011;6584;48.022;11.810;2022-12-07T16:26:48;10.73;;;9.27;;
13034;SDS011;6584;48.022;11.810;2022-12-07T16:29:14;10.85;;;9.50;;
13034;SDS011;6584;48.022;11.810;2022-12-07T16:31:40;10.52;;;9.18;;
13034;SDS011;6584;48.022;11.810;2022-12-07T16:34:09;11.05;;;9.95;;
13034;SDS011;6584;48.022;11.810;2022-12-07T16:36:35;13.05;;;10.77;;
13034;SDS011;6584;48.022;11.810;2022-12-07T16:39:02;14.25;;;11.00;;
13034;SDS011;6584;48.022;11.810;2022-12-07T16:41:28;14.85;;;10.40;;
13034;SDS011;6584;48.022;11.810;2022-12-07T16:43:53;13.90;;;10.50;;
13034;SDS011;6584;48.022;11.810;2022-12-07T16:46:19;12.80;;;9.63;;
13034;SDS011;6584;48.022;11.810;2022-12-07T16:48:45;13.52;;;10.65;;
13034;SDS011;6584;48.022;11.810;2022-12-07T16:51:11;13.38;;;10.88;;